createdAt,value
2023-03-11T00:00:22.500Z,80.30
2023-03-11T00:03:24.521Z,80.23
2023-03-11T00:06:04.251Z,80.20
2023-03-11T00:08:41.400Z,80.20
2023-03-11T00:11:17.848Z,80.13
2023-03-11T00:13:54.217Z,80.21
2023-03-11T00:16:30.758Z,80.37
2023-03-11T00:19:07.246Z,80.33
2023-03-11T00:21:43.729Z,80.37
2023-03-11T00:24:20.052Z,80.30
2023-03-11T00:26:56.346Z,80.20
2023-03-11T00:29:32.721Z,80.19
2023-03-11T00:32:10.705Z,80.09
2023-03-11T00:34:47.396Z,79.94
2023-03-11T00:37:24.271Z,79.90
2023-03-11T00:40:00.633Z,79.76
2023-03-11T00:42:37.005Z,79.54
2023-03-11T00:45:15.879Z,79.42
2023-03-11T00:47:53.083Z,79.39
2023-03-11T00:50:33.719Z,79.28
2023-03-11T00:53:11.417Z,79.20
2023-03-11T00:55:47.841Z,79.21
2023-03-11T00:58:28.265Z,79.23
2023-03-11T01:01:10.382Z,79.16
2023-03-11T01:03:47.779Z,79.06
2023-03-11T01:06:26.176Z,78.95
2023-03-11T01:09:07.315Z,78.93
2023-03-11T01:11:43.743Z,79.00
2023-03-11T01:14:21.397Z,79.00
2023-03-11T01:16:58.012Z,79.08
2023-03-11T01:19:34.369Z,79.08
2023-03-11T01:22:12.170Z,79.20
2023-03-11T01:24:49.306Z,79.46
2023-03-11T01:27:25.733Z,79.50
2023-03-11T01:30:02.606Z,79.52
2023-03-11T01:32:39.391Z,79.51
2023-03-11T01:35:20.520Z,79.43
2023-03-11T01:37:57.329Z,79.30
2023-03-11T01:40:38.842Z,79.15
2023-03-11T01:43:59.543Z,79.10
2023-03-11T01:47:38.850Z,79.11
2023-03-11T01:50:18.450Z,79.01
2023-03-11T01:52:55.048Z,78.86
2023-03-11T01:55:34.441Z,78.75
2023-03-11T01:58:18.574Z,78.54
2023-03-11T02:00:57.847Z,77.69
2023-03-11T02:03:39.985Z,76.64
2023-03-11T02:06:19.090Z,75.81
2023-03-11T02:08:56.633Z,75.12
2023-03-11T02:11:35.527Z,74.92
2023-03-11T02:14:13.405Z,73.93
2023-03-11T02:16:50.468Z,73.38
2023-03-11T02:19:48.207Z,73.27
2023-03-11T02:22:26.049Z,73.00
2023-03-11T02:25:11.632Z,73.11
2023-03-11T02:27:54.183Z,72.31
2023-03-11T02:30:35.245Z,71.42
2023-03-11T02:33:13.713Z,70.34
2023-03-11T02:35:50.994Z,69.87
2023-03-11T02:38:27.752Z,70.06
2023-03-11T02:41:07.579Z,69.96
2023-03-11T02:43:48.078Z,70.00
2023-03-11T02:46:25.334Z,69.75
2023-03-11T02:49:03.128Z,69.45
2023-03-11T02:51:39.744Z,68.93
2023-03-11T02:54:16.573Z,68.57
2023-03-11T02:56:53.134Z,67.95
2023-03-11T02:59:29.701Z,68.04
2023-03-11T03:02:07.193Z,67.56
2023-03-11T03:04:43.758Z,67.51
2023-03-11T03:07:20.225Z,67.42
2023-03-11T03:09:56.764Z,66.83
2023-03-11T03:12:33.574Z,66.85
2023-03-11T03:15:13.299Z,66.70
2023-03-11T03:17:52.294Z,66.61
2023-03-11T03:20:29.221Z,65.62
2023-03-11T03:23:08.994Z,65.73
2023-03-11T03:25:48.822Z,65.25
2023-03-11T03:28:25.589Z,65.26
2023-03-11T03:31:10.856Z,64.78
2023-03-11T03:33:48.017Z,65.00
2023-03-11T03:36:25.016Z,65.06
2023-03-11T03:39:05.860Z,65.13
2023-03-11T03:41:44.255Z,65.45
2023-03-11T03:44:20.789Z,65.57
2023-03-11T03:46:57.340Z,65.45
2023-03-11T03:49:33.909Z,65.45
2023-03-11T03:52:11.608Z,65.83
2023-03-11T03:54:49.187Z,65.96
2023-03-11T03:57:25.614Z,65.78
2023-03-11T04:00:02.308Z,65.70
2023-03-11T04:02:39.366Z,65.71
2023-03-11T04:05:16.713Z,65.53
2023-03-11T04:07:53.935Z,65.66
2023-03-11T04:10:31.550Z,65.81
2023-03-11T04:13:08.604Z,65.71
2023-03-11T04:15:45.665Z,65.61
2023-03-11T04:18:22.955Z,65.37
2023-03-11T04:21:00.304Z,65.51
2023-03-11T04:23:37.764Z,65.30
2023-03-11T04:26:14.918Z,65.61
2023-03-11T04:28:51.284Z,65.33
2023-03-11T04:31:28.152Z,65.41
2023-03-11T04:34:05.218Z,65.29
2023-03-11T04:36:41.904Z,65.48
2023-03-11T04:39:19.208Z,65.46
2023-03-11T04:41:55.859Z,65.52
2023-03-11T04:44:35.780Z,65.73
2023-03-11T04:47:13.205Z,65.83
2023-03-11T04:49:50.280Z,65.86
2023-03-11T04:52:26.751Z,66.15
2023-03-11T04:55:03.406Z,66.12
2023-03-11T04:57:42.115Z,66.12
2023-03-11T05:00:25.196Z,66.34
2023-03-11T05:03:09.828Z,66.09
2023-03-11T05:05:49.165Z,65.92
2023-03-11T05:08:27.254Z,66.18
2023-03-11T05:11:04.287Z,66.03
2023-03-11T05:13:41.407Z,66.25
2023-03-11T05:16:18.012Z,66.20
2023-03-11T05:18:55.176Z,66.44
2023-03-11T05:21:32.466Z,66.78
2023-03-11T05:24:10.333Z,66.96
2023-03-11T05:26:48.538Z,67.46
2023-03-11T05:29:26.423Z,68.35
2023-03-11T05:32:03.292Z,69.32
2023-03-11T05:34:39.840Z,70.17
2023-03-11T05:37:17.534Z,71.01
2023-03-11T05:39:55.973Z,71.73
2023-03-11T05:42:32.704Z,72.38
2023-03-11T05:45:11.534Z,72.50
2023-03-11T05:47:48.219Z,72.97
2023-03-11T05:50:25.384Z,73.08
2023-03-11T05:53:02.190Z,73.29
2023-03-11T05:55:39.756Z,73.55
2023-03-11T05:58:16.480Z,73.98
2023-03-11T06:00:53.368Z,74.05
2023-03-11T06:03:29.690Z,74.25
2023-03-11T06:06:08.793Z,74.28
2023-03-11T06:08:49.939Z,74.51
2023-03-11T06:11:27.282Z,74.62
2023-03-11T06:14:03.837Z,74.46
2023-03-11T06:16:40.643Z,74.05
2023-03-11T06:19:18.002Z,74.08
2023-03-11T06:21:57.303Z,74.34
2023-03-11T06:24:34.003Z,74.24
2023-03-11T06:27:11.376Z,74.50
2023-03-11T06:29:52.675Z,74.53
2023-03-11T06:32:30.377Z,74.48
2023-03-11T06:35:08.375Z,74.67
2023-03-11T06:37:44.840Z,74.88
2023-03-11T06:40:21.905Z,75.02
2023-03-11T06:42:58.375Z,74.81
2023-03-11T06:45:35.809Z,75.00
2023-03-11T06:48:13.040Z,74.90
2023-03-11T06:50:56.619Z,74.85
2023-03-11T06:53:34.921Z,74.99
2023-03-11T06:56:15.501Z,74.99
2023-03-11T06:58:56.544Z,75.17
2023-03-11T07:01:34.272Z,75.47
2023-03-11T07:04:14.142Z,75.73
2023-03-11T07:06:50.847Z,76.12
2023-03-11T07:09:30.089Z,76.35
2023-03-11T07:12:08.144Z,76.83
2023-03-11T07:14:45.668Z,77.27
2023-03-11T07:17:22.697Z,77.36
2023-03-11T07:20:00.236Z,77.51
2023-03-11T07:22:36.553Z,77.23
2023-03-11T07:25:14.996Z,77.25
2023-03-11T07:27:51.252Z,76.86
2023-03-11T07:30:27.991Z,76.29
2023-03-11T07:33:04.865Z,75.65
2023-03-11T07:35:42.966Z,75.53
2023-03-11T07:38:19.835Z,75.38
2023-03-11T07:41:04.518Z,75.35
2023-03-11T07:43:43.034Z,75.29
2023-03-11T07:46:22.840Z,74.94
2023-03-11T07:48:59.457Z,74.69
2023-03-11T07:51:41.021Z,74.41
2023-03-11T07:54:17.861Z,74.09
2023-03-11T07:56:54.333Z,74.11
2023-03-11T07:59:31.030Z,73.49
2023-03-11T08:02:08.546Z,72.57
2023-03-11T08:04:45.403Z,72.43
2023-03-11T08:07:22.033Z,71.72
2023-03-11T08:09:58.956Z,71.36
2023-03-11T08:12:35.292Z,70.91
2023-03-11T08:15:14.711Z,71.33
2023-03-11T08:17:51.214Z,71.37
2023-03-11T08:20:28.213Z,71.27
2023-03-11T08:23:04.817Z,71.41
2023-03-11T08:25:44.567Z,70.88
2023-03-11T08:28:21.315Z,70.93
2023-03-11T08:30:57.881Z,70.88
2023-03-11T08:33:34.424Z,70.59
2023-03-11T08:36:12.199Z,70.41
2023-03-11T08:38:49.401Z,70.49
2023-03-11T08:41:26.771Z,70.97
2023-03-11T08:44:03.472Z,71.32
2023-03-11T08:46:42.006Z,71.61
2023-03-11T08:49:18.700Z,71.71
2023-03-11T08:51:55.630Z,71.46
2023-03-11T08:54:32.861Z,71.60
2023-03-11T08:57:09.780Z,71.61
2023-03-11T08:59:46.305Z,71.55
2023-03-11T09:02:22.781Z,71.64
2023-03-11T09:04:59.508Z,71.69
2023-03-11T09:07:36.334Z,71.99
2023-03-11T09:10:16.176Z,71.66
2023-03-11T09:12:52.835Z,71.69
2023-03-11T09:15:29.960Z,71.81
2023-03-11T09:18:09.133Z,71.99
2023-03-11T09:20:46.632Z,71.98
2023-03-11T09:23:23.505Z,71.98
2023-03-11T09:26:00.061Z,71.85
2023-03-11T09:28:37.045Z,72.37
2023-03-11T09:31:14.563Z,71.97
2023-03-11T09:33:52.847Z,72.16
2023-03-11T09:36:29.772Z,72.03
2023-03-11T09:39:07.034Z,71.95
2023-03-11T09:41:58.251Z,71.89
2023-03-11T09:44:38.510Z,72.11
2023-03-11T09:47:44.746Z,71.74
2023-03-11T09:50:45.286Z,71.47
2023-03-11T09:53:42.078Z,72.11
2023-03-11T09:56:23.306Z,71.90
2023-03-11T09:59:07.932Z,72.17
2023-03-11T10:01:49.174Z,72.38
2023-03-11T10:04:33.329Z,72.41
2023-03-11T10:07:22.233Z,72.17
2023-03-11T10:10:01.107Z,71.83
2023-03-11T10:12:56.149Z,71.25
2023-03-11T10:15:57.334Z,70.34
2023-03-11T10:19:03.710Z,70.64
2023-03-11T10:21:59.400Z,71.08
2023-03-11T10:25:07.173Z,70.41
2023-03-11T10:27:53.373Z,70.58
2023-03-11T10:30:36.993Z,70.84
2023-03-11T10:33:26.363Z,71.76
2023-03-11T10:36:10.582Z,72.33
2023-03-11T10:38:52.492Z,73.20
2023-03-11T10:41:39.119Z,73.83
2023-03-11T10:44:24.024Z,74.12
2023-03-11T10:47:00.795Z,74.32
2023-03-11T10:49:37.948Z,74.66
2023-03-11T10:52:15.084Z,74.64
2023-03-11T10:55:03.047Z,74.47
2023-03-11T10:57:42.962Z,74.53
2023-03-11T11:03:31.636Z,75.33
2023-03-11T11:06:23.614Z,75.48
2023-03-11T11:09:26.835Z,75.90
2023-03-11T11:12:17.826Z,75.91
2023-03-11T11:14:55.959Z,76.12
2023-03-11T11:28:44.720Z,77.17
2023-03-11T11:31:29.613Z,77.55
2023-03-11T11:34:24.066Z,77.79
2023-03-11T11:37:04.057Z,77.97
2023-03-11T11:39:52.695Z,78.17
2023-03-11T11:42:33.091Z,78.39
2023-03-11T11:45:25.445Z,78.61
2023-03-11T11:48:09.032Z,78.77
2023-03-11T11:50:53.080Z,79.21
2023-03-11T11:53:43.298Z,79.22
2023-03-11T11:56:19.776Z,79.21
2023-03-11T11:58:56.626Z,79.23
2023-03-11T12:01:51.270Z,79.40
2023-03-11T12:04:52.974Z,79.59
2023-03-11T12:07:55.874Z,79.72
2023-03-11T12:10:42.769Z,79.86
2023-03-11T12:14:03.201Z,80.02
2023-03-11T12:16:53.304Z,80.17
2023-03-11T12:19:46.401Z,80.20
2023-03-11T12:23:37.490Z,80.36
2023-03-11T12:26:24.034Z,80.39
2023-03-11T12:29:08.378Z,80.47
2023-03-11T12:31:47.071Z,80.50
2023-03-11T12:34:25.927Z,80.37
2023-03-11T12:37:14.699Z,80.36
2023-03-11T12:39:51.237Z,80.24
2023-03-11T12:42:41.929Z,79.88
2023-03-11T12:45:55.596Z,79.81
2023-03-11T12:48:46.159Z,79.85
2023-03-11T12:52:04.796Z,80.06
2023-03-11T12:54:43.619Z,79.94
2023-03-11T12:57:38.660Z,79.76
2023-03-11T13:00:56.003Z,79.74
2023-03-11T13:03:53.968Z,79.65
2023-03-11T13:07:40.829Z,79.67
2023-03-11T13:10:42.091Z,79.84
2023-03-11T13:13:43.785Z,79.91
2023-03-11T13:16:48.072Z,79.85
2023-03-11T13:19:53.920Z,79.96
2023-03-11T13:23:29.485Z,79.61
2023-03-11T13:26:42.256Z,79.16
2023-03-11T13:29:57.344Z,78.62
2023-03-11T13:33:07.456Z,77.97
2023-03-11T13:36:19.435Z,77.95
2023-03-11T13:39:40.327Z,77.91
2023-03-11T13:42:32.625Z,78.30
2023-03-11T13:45:23.546Z,78.63
2023-03-11T13:48:05.112Z,78.73
2023-03-11T13:50:48.357Z,78.83
2023-03-11T13:53:33.567Z,78.88
2023-03-11T13:56:23.277Z,78.48
2023-03-11T13:59:23.895Z,78.61
2023-03-11T14:02:05.251Z,78.77
2023-03-11T14:04:45.642Z,78.78
2023-03-11T14:07:31.879Z,78.00
2023-03-11T14:10:30.482Z,78.28
2023-03-11T14:13:21.994Z,78.56
2023-03-11T14:16:10.085Z,78.71
2023-03-11T14:18:49.612Z,78.70
2023-03-11T14:21:27.879Z,78.87
2023-03-11T14:24:05.719Z,79.16
2023-03-11T14:26:48.016Z,79.32
2023-03-11T14:29:32.604Z,79.49
2023-03-11T14:32:31.090Z,79.68
2023-03-11T14:35:24.439Z,79.51
2023-03-11T14:38:01.513Z,79.50
2023-03-11T14:40:42.895Z,79.59
2023-03-11T14:43:22.034Z,79.75
2023-03-11T14:46:00.275Z,79.81
2023-03-11T14:48:43.879Z,79.57
2023-03-11T14:51:26.665Z,79.38
2023-03-11T14:54:18.337Z,79.31
2023-03-11T14:57:16.339Z,79.13
2023-03-11T14:59:54.653Z,78.82
2023-03-11T15:02:51.579Z,78.15
2023-03-11T15:05:41.830Z,77.59
2023-03-11T15:08:23.922Z,77.26
2023-03-11T15:11:26.202Z,77.30
2023-03-11T15:14:25.800Z,77.63
2023-03-11T15:17:33.820Z,77.79
2023-03-11T15:20:35.044Z,78.21
2023-03-11T15:23:24.610Z,78.54
2023-03-11T15:26:01.464Z,78.49
2023-03-11T15:28:41.451Z,78.48
2023-03-11T15:31:45.054Z,78.37
2023-03-11T15:34:41.376Z,78.45
2023-03-11T15:37:31.299Z,78.39
2023-03-11T15:40:35.265Z,78.46
2023-03-11T15:43:33.875Z,78.25
2023-03-11T15:46:14.113Z,78.27
2023-03-11T15:48:50.665Z,78.57
2023-03-11T15:51:27.464Z,78.69
2023-03-11T15:54:04.287Z,78.69
2023-03-11T15:56:43.424Z,78.84
2023-03-11T15:59:23.683Z,79.03
2023-03-11T16:02:00.887Z,79.11
2023-03-11T16:04:37.593Z,79.07
2023-03-11T16:07:14.140Z,78.99
2023-03-11T16:09:50.682Z,79.09
2023-03-11T16:12:27.977Z,79.12
2023-03-11T16:15:05.190Z,79.33
2023-03-11T16:17:49.660Z,79.53
2023-03-11T16:20:29.798Z,79.56
2023-03-11T16:23:09.037Z,79.66
2023-03-11T16:25:46.480Z,79.70
2023-03-11T16:28:23.075Z,79.89
2023-03-11T16:31:00.043Z,80.10
2023-03-11T16:33:36.883Z,80.26
2023-03-11T16:36:15.188Z,80.49
2023-03-11T16:38:53.728Z,80.64
2023-03-11T16:41:30.568Z,80.86
2023-03-11T16:44:09.613Z,80.97
2023-03-11T16:46:46.498Z,81.02
2023-03-11T16:49:23.116Z,81.01
2023-03-11T16:51:59.770Z,80.96
2023-03-11T16:54:36.455Z,80.87
2023-03-11T16:57:13.569Z,80.82
2023-03-11T16:59:50.285Z,80.79
2023-03-11T17:02:26.785Z,80.72
2023-03-11T17:05:04.726Z,80.66
2023-03-11T17:07:41.980Z,80.46
2023-03-11T17:10:19.580Z,80.29
2023-03-11T17:12:56.484Z,80.15
2023-03-11T17:15:34.771Z,79.97
2023-03-11T17:18:11.864Z,79.88
2023-03-11T17:20:48.387Z,79.88
2023-03-11T17:23:25.150Z,79.87
2023-03-11T17:26:01.872Z,79.75
2023-03-11T17:28:41.174Z,79.68
2023-03-11T17:31:22.122Z,79.59
2023-03-11T17:33:59.266Z,79.39
2023-03-11T17:36:36.143Z,79.11
2023-03-11T17:39:13.004Z,78.96
2023-03-11T17:41:49.801Z,79.06
2023-03-11T17:44:26.565Z,79.09
2023-03-11T17:47:03.214Z,78.96
2023-03-11T17:49:40.229Z,79.00
2023-03-11T17:52:16.775Z,78.97
2023-03-11T17:54:53.838Z,79.17
2023-03-11T17:57:35.401Z,79.20
2023-03-11T18:00:19.475Z,79.10
2023-03-11T18:02:56.153Z,78.85
2023-03-11T18:05:33.041Z,78.10
2023-03-11T18:08:10.370Z,78.00
2023-03-11T18:10:54.642Z,78.01
2023-03-11T18:13:32.277Z,78.06
2023-03-11T18:16:12.962Z,77.69
2023-03-11T18:18:50.192Z,77.86
2023-03-11T18:21:30.155Z,78.37
2023-03-11T18:24:08.114Z,78.16
2023-03-11T18:26:44.625Z,78.10
2023-03-11T18:29:21.080Z,78.41
2023-03-11T18:31:57.939Z,78.55
2023-03-11T18:34:34.594Z,78.50
2023-03-11T18:37:11.680Z,78.50
2023-03-11T18:39:48.533Z,78.63
2023-03-11T18:42:25.520Z,78.52
2023-03-11T18:45:02.354Z,78.19
2023-03-11T18:47:41.657Z,78.07
2023-03-11T18:50:20.206Z,78.16
2023-03-11T18:52:58.097Z,77.39
2023-03-11T18:55:36.933Z,77.12
2023-03-11T18:58:13.692Z,76.77
2023-03-11T19:00:51.363Z,76.85
2023-03-11T19:03:28.403Z,76.86
2023-03-11T19:06:05.814Z,76.87
2023-03-11T19:08:43.703Z,76.75
2023-03-11T19:11:24.164Z,76.79
2023-03-11T19:14:00.780Z,76.83
2023-03-11T19:16:38.061Z,76.90
2023-03-11T19:19:14.854Z,77.01
2023-03-11T19:21:51.508Z,76.98
2023-03-11T19:24:29.926Z,76.97
2023-03-11T19:27:06.563Z,77.05
2023-03-11T19:29:43.208Z,77.39
2023-03-11T19:32:19.883Z,78.12
2023-03-11T19:34:56.652Z,78.88
2023-03-11T19:37:34.584Z,79.26
2023-03-11T19:40:16.566Z,79.44
2023-03-11T19:43:12.349Z,79.64
2023-03-11T19:45:51.818Z,79.63
2023-03-11T19:48:28.498Z,79.74
2023-03-11T19:51:05.918Z,79.71
2023-03-11T19:53:43.197Z,79.57
2023-03-11T19:56:20.059Z,79.47
2023-03-11T19:58:57.484Z,79.39
2023-03-11T20:01:34.191Z,79.20
2023-03-11T20:04:11.451Z,79.01
2023-03-11T20:06:49.236Z,78.85
2023-03-11T20:09:25.816Z,78.68
2023-03-11T20:12:02.565Z,78.25
2023-03-11T20:14:39.112Z,77.91
2023-03-11T20:17:16.028Z,77.51
2023-03-11T20:19:53.010Z,77.20
2023-03-11T20:22:29.723Z,76.95
2023-03-11T20:25:07.134Z,76.68
2023-03-11T20:27:46.219Z,76.46
2023-03-11T20:30:24.386Z,76.33
2023-03-11T20:33:01.004Z,76.29
2023-03-11T20:35:37.875Z,76.26
2023-03-11T20:38:14.824Z,76.32
2023-03-11T20:40:59.925Z,76.21
2023-03-11T20:43:36.972Z,76.11
2023-03-11T20:46:14.457Z,76.19
2023-03-11T20:48:51.214Z,76.15
2023-03-11T20:51:28.522Z,76.09
2023-03-11T20:54:05.554Z,76.06
2023-03-11T20:56:42.562Z,76.09
2023-03-11T20:59:19.975Z,76.14
2023-03-11T21:01:56.771Z,76.30
2023-03-11T21:04:35.600Z,76.30
2023-03-11T21:07:12.949Z,76.36
2023-03-11T21:09:54.654Z,76.39
2023-03-11T21:12:31.499Z,76.52
2023-03-11T21:15:10.461Z,76.74
2023-03-11T21:17:47.324Z,76.89
2023-03-11T21:20:26.837Z,76.92
2023-03-11T21:23:03.517Z,77.09
2023-03-11T21:25:42.810Z,77.25
2023-03-11T21:28:19.354Z,77.37
2023-03-11T21:31:04.204Z,77.53
2023-03-11T21:33:42.222Z,77.73
2023-03-11T21:36:22.155Z,77.95
2023-03-11T21:39:00.977Z,78.09
2023-03-11T21:41:40.148Z,78.14
2023-03-11T21:44:16.829Z,78.27
2023-03-11T21:46:53.595Z,78.26
2023-03-11T21:49:31.391Z,78.37
2023-03-11T21:52:08.435Z,78.41
2023-03-11T21:54:45.140Z,78.56
2023-03-11T21:57:21.999Z,78.56
2023-03-11T21:59:59.159Z,78.71
2023-03-11T22:02:36.015Z,78.76
2023-03-11T22:05:14.868Z,78.89
2023-03-11T22:07:51.563Z,79.00
2023-03-11T22:10:28.267Z,79.06
2023-03-11T22:13:05.778Z,79.15
2023-03-11T22:15:42.481Z,79.23
2023-03-11T22:18:20.253Z,79.40
2023-03-11T22:21:03.678Z,79.45
2023-03-11T22:23:44.172Z,79.47
2023-03-11T22:26:22.872Z,79.42
2023-03-11T22:29:03.978Z,79.35
2023-03-11T22:31:42.772Z,79.24
2023-03-11T22:34:19.806Z,79.19
2023-03-11T22:36:56.259Z,79.10
2023-03-11T22:39:32.729Z,79.08
2023-03-11T22:42:10.236Z,79.05
2023-03-11T22:44:50.602Z,79.01
2023-03-11T22:47:27.163Z,78.95
2023-03-11T22:50:03.572Z,78.80
2023-03-11T22:52:39.899Z,78.73
2023-03-11T22:55:16.653Z,78.71
2023-03-11T22:57:53.142Z,78.70
2023-03-11T23:00:29.748Z,78.71
2023-03-11T23:03:07.224Z,78.73
2023-03-11T23:05:46.129Z,78.72
2023-03-11T23:08:23.646Z,78.56
2023-03-11T23:11:04.789Z,78.49
2023-03-11T23:13:42.846Z,78.33
2023-03-11T23:16:23.002Z,78.25
2023-03-11T23:19:02.124Z,78.11
2023-03-11T23:21:40.082Z,78.06
2023-03-11T23:24:16.385Z,77.93
2023-03-11T23:26:52.917Z,77.80
2023-03-11T23:29:29.180Z,77.59
2023-03-11T23:32:06.981Z,77.40
2023-03-11T23:34:44.063Z,77.30
2023-03-11T23:37:20.537Z,77.24
2023-03-11T23:39:57.006Z,77.16
2023-03-11T23:42:35.482Z,77.08
2023-03-11T23:45:14.329Z,76.95
2023-03-11T23:47:50.921Z,76.86
2023-03-11T23:50:27.477Z,76.80
2023-03-11T23:53:04.037Z,76.85
2023-03-11T23:55:42.611Z,76.96
2023-03-11T23:58:19.031Z,77.01
